sensor_id;sensor_type;location;lat;lon;timestamp;pressure;altitude;pressure_sealevel;temperature;humidity
53699;BME280;68408;53.952;27.612;2023-07-29T00:00:25;1001.9;;;18.2;67.5
53699;BME280;68408;53.952;27.612;2023-07-29T00:05:22;1001.8;;;18.2;67.6
53699;BME280;68408;53.952;27.612;2023-07-29T00:10:38;1001.8;;;18.1;67.8
53699;BME280;68408;53.952;27.612;2023-07-29T00:15:41;1001.7;;;18.1;68
53699;BME280;68408;53.952;27.612;2023-07-29T00:20:50;1001.7;;;18.1;68.2
53699;BME280;68408;53.952;27.612;2023-07-29T00:25:28;1001.7;;;18.1;68.1
53699;BME280;68408;53.952;27.612;2023-07-29T00:30:10;1001.7;;;18.1;67.9
53699;BME280;68408;53.952;27.612;2023-07-29T00:35:22;1001.6;;;18.1;68.1
53699;BME280;68408;53.952;27.612;2023-07-29T00:40:50;1001.6;;;18;68.3
53699;BME280;68408;53.952;27.612;2023-07-29T00:45:36;1001.6;;;17.9;68.8
53699;BME280;68408;53.952;27.612;2023-07-29T00:50:40;1001.6;;;17.9;68.6
53699;BME280;68408;53.952;27.612;2023-07-29T00:55:52;1001.5;;;17.8;68.6
53699;BME280;68408;53.952;27.612;2023-07-29T01:00:38;1001.5;;;17.8;68.9
53699;BME280;68408;53.952;27.612;2023-07-29T01:05:55;1001.4;;;17.7;69.2
53699;BME280;68408;53.952;27.612;2023-07-29T01:10:13;1001.5;;;17.7;69.4
53699;BME280;68408;53.952;27.612;2023-07-29T01:15:53;1001.5;;;17.7;69.5
53699;BME280;68408;53.952;27.612;2023-07-29T01:20:53;1001.4;;;17.7;69.4
53699;BME280;68408;53.952;27.612;2023-07-29T01:25:50;1001.4;;;17.6;69.5
53699;BME280;68408;53.952;27.612;2023-07-29T01:30:52;1001.3;;;17.6;69.9
53699;BME280;68408;53.952;27.612;2023-07-29T01:35:39;1001.4;;;17.6;70.1
53699;BME280;68408;53.952;27.612;2023-07-29T01:40:48;1001.4;;;17.6;70.5
53699;BME280;68408;53.952;27.612;2023-07-29T01:45:16;1001.4;;;17.6;70.8
53699;BME280;68408;53.952;27.612;2023-07-29T01:50:50;1001.3;;;17.6;71.1
53699;BME280;68408;53.952;27.612;2023-07-29T01:55:36;1001.3;;;17.6;71.4
53699;BME280;68408;53.952;27.612;2023-07-29T02:00:10;1001.3;;;17.7;71.5
53699;BME280;68408;53.952;27.612;2023-07-29T02:05:52;1001.3;;;17.7;71.6
53699;BME280;68408;53.952;27.612;2023-07-29T02:10:36;1001.4;;;17.7;71.6
53699;BME280;68408;53.952;27.612;2023-07-29T02:15:10;1001.4;;;17.7;71.7
53699;BME280;68408;53.952;27.612;2023-07-29T02:20:10;1001.4;;;17.7;71.8
53699;BME280;68408;53.952;27.612;2023-07-29T02:25:36;1001.4;;;17.7;72.1
53699;BME280;68408;53.952;27.612;2023-07-29T02:30:36;1001.5;;;17.7;72.4
53699;BME280;68408;53.952;27.612;2023-07-29T02:35:38;1001.5;;;17.7;72.6
53699;BME280;68408;53.952;27.612;2023-07-29T02:40:52;1001.6;;;17.7;72.7
53699;BME280;68408;53.952;27.612;2023-07-29T02:45:10;1001.6;;;17.7;73
53699;BME280;68408;53.952;27.612;2023-07-29T02:50:36;1001.6;;;17.8;72.9
53699;BME280;68408;53.952;27.612;2023-07-29T02:55:18;1001.7;;;17.8;72.9
53699;BME280;68408;53.952;27.612;2023-07-29T03:00:26;1001.7;;;17.8;72.8
53699;BME280;68408;53.952;27.612;2023-07-29T03:05:42;1001.7;;;17.9;72.8
53699;BME280;68408;53.952;27.612;2023-07-29T03:10:52;1001.8;;;17.8;73
53699;BME280;68408;53.952;27.612;2023-07-29T03:15:10;1001.8;;;17.8;73.6
53699;BME280;68408;53.952;27.612;2023-07-29T03:20:28;1001.9;;;17.8;73.5
53699;BME280;68408;53.952;27.612;2023-07-29T03:25:52;1001.9;;;17.8;73.9
53699;BME280;68408;53.952;27.612;2023-07-29T03:30:22;1002;;;17.8;73.8
53699;BME280;68408;53.952;27.612;2023-07-29T03:35:24;1002;;;17.9;73.8
53699;BME280;68408;53.952;27.612;2023-07-29T03:40:10;1002;;;18;73.4
53699;BME280;68408;53.952;27.612;2023-07-29T03:45:42;1002;;;18.1;73.2
53699;BME280;68408;53.952;27.612;2023-07-29T03:50:10;1002;;;18.5;72.2
53699;BME280;68408;53.952;27.612;2023-07-29T03:55:28;1002;;;19;70.6
53699;BME280;68408;53.952;27.612;2023-07-29T04:00:52;1002;;;19.6;69
53699;BME280;68408;53.952;27.612;2023-07-29T04:05:42;1002;;;19.8;67.6
53699;BME280;68408;53.952;27.612;2023-07-29T04:10:26;1001.9;;;19.7;67.8
53699;BME280;68408;53.952;27.612;2023-07-29T04:15:28;1002;;;19.7;67.2
53699;BME280;68408;53.952;27.612;2023-07-29T04:20:52;1002;;;19.5;67.3
53699;BME280;68408;53.952;27.612;2023-07-29T04:25:10;1002;;;19.5;67.2
53699;BME280;68408;53.952;27.612;2023-07-29T04:30:22;1002.1;;;19.5;67.2
53699;BME280;68408;53.952;27.612;2023-07-29T04:35:38;1002.1;;;19.4;67.5
53699;BME280;68408;53.952;27.612;2023-07-29T04:40:12;1002.1;;;19.3;67.4
53699;BME280;68408;53.952;27.612;2023-07-29T04:45:52;1002.1;;;19.3;67.9
53699;BME280;68408;53.952;27.612;2023-07-29T04:50:28;1002.1;;;19.4;67.5
53699;BME280;68408;53.952;27.612;2023-07-29T04:55:14;1002;;;19.7;67.2
53699;BME280;68408;53.952;27.612;2023-07-29T05:00:14;1001.9;;;20.1;65.5
53699;BME280;68408;53.952;27.612;2023-07-29T05:05:52;1001.9;;;20.5;64.1
53699;BME280;68408;53.952;27.612;2023-07-29T05:10:38;1002;;;20.6;63.5
53699;BME280;68408;53.952;27.612;2023-07-29T05:15:42;1002;;;21;62.1
53699;BME280;68408;53.952;27.612;2023-07-29T05:20:52;1002.1;;;21.3;60.6
53699;BME280;68408;53.952;27.612;2023-07-29T05:25:12;1002.1;;;21.3;60
53699;BME280;68408;53.952;27.612;2023-07-29T05:30:10;1002.2;;;21.2;60
53699;BME280;68408;53.952;27.612;2023-07-29T05:35:10;1002.3;;;20.9;60.7
53699;BME280;68408;53.952;27.612;2023-07-29T05:40:52;1002.3;;;20.7;61.1
53699;BME280;68408;53.952;27.612;2023-07-29T05:45:46;1002.4;;;20.5;61.6
53699;BME280;68408;53.952;27.612;2023-07-29T05:50:52;1002.4;;;20.5;61.8
53699;BME280;68408;53.952;27.612;2023-07-29T05:55:52;1002.4;;;20.4;62
53699;BME280;68408;53.952;27.612;2023-07-29T06:00:38;1002.4;;;20.4;62.1
53699;BME280;68408;53.952;27.612;2023-07-29T06:05:30;1002.4;;;20.5;61.8
53699;BME280;68408;53.952;27.612;2023-07-29T06:10:12;1002.5;;;20.5;61.6
53699;BME280;68408;53.952;27.612;2023-07-29T06:15:52;1002.5;;;20.5;61.7
53699;BME280;68408;53.952;27.612;2023-07-29T06:20:34;1002.5;;;20.6;61.8
53699;BME280;68408;53.952;27.612;2023-07-29T06:25:38;1002.5;;;20.6;61.9
53699;BME280;68408;53.952;27.612;2023-07-29T06:30:52;1002.6;;;20.6;62
53699;BME280;68408;53.952;27.612;2023-07-29T06:35:26;1002.6;;;20.4;62.3
53699;BME280;68408;53.952;27.612;2023-07-29T06:40:18;1002.7;;;20.3;62.5
53699;BME280;68408;53.952;27.612;2023-07-29T06:45:18;1002.7;;;20.3;62.4
53699;BME280;68408;53.952;27.612;2023-07-29T06:50:10;1002.7;;;20.5;61.9
53699;BME280;68408;53.952;27.612;2023-07-29T06:55:24;1002.8;;;20.6;61.6
53699;BME280;68408;53.952;27.612;2023-07-29T07:00:36;1002.9;;;20.6;61.5
53699;BME280;68408;53.952;27.612;2023-07-29T07:05:24;1002.9;;;20.6;61.2
53699;BME280;68408;53.952;27.612;2023-07-29T07:10:38;1002.9;;;20.8;61.1
53699;BME280;68408;53.952;27.612;2023-07-29T07:15:34;1002.9;;;21.2;59.9
53699;BME280;68408;53.952;27.612;2023-07-29T07:20:10;1002.9;;;21.5;58.9
53699;BME280;68408;53.952;27.612;2023-07-29T07:25:10;1002.9;;;21.7;58.3
53699;BME280;68408;53.952;27.612;2023-07-29T07:30:42;1002.9;;;21.9;57.4
53699;BME280;68408;53.952;27.612;2023-07-29T07:35:44;1002.9;;;22;56.9
53699;BME280;68408;53.952;27.612;2023-07-29T07:40:36;1002.9;;;22.2;56
53699;BME280;68408;53.952;27.612;2023-07-29T07:45:28;1002.9;;;22.1;55.8
53699;BME280;68408;53.952;27.612;2023-07-29T07:50:50;1002.9;;;22.3;54.6
53699;BME280;68408;53.952;27.612;2023-07-29T07:55:18;1002.9;;;22.4;54
53699;BME280;68408;53.952;27.612;2023-07-29T08:00:20;1002.9;;;22.4;53.4
53699;BME280;68408;53.952;27.612;2023-07-29T08:05:10;1003;;;22.7;53
53699;BME280;68408;53.952;27.612;2023-07-29T08:10:40;1003;;;23;52.2
53699;BME280;68408;53.952;27.612;2023-07-29T08:15:14;1003;;;23.2;51.6
53699;BME280;68408;53.952;27.612;2023-07-29T08:20:24;1003.1;;;23.5;51.3
53699;BME280;68408;53.952;27.612;2023-07-29T08:25:51;1003.1;;;23.4;51.1
53699;BME280;68408;53.952;27.612;2023-07-29T08:30:30;1003.1;;;23.3;51.5
53699;BME280;68408;53.952;27.612;2023-07-29T08:35:24;1003.1;;;23.3;51.1
53699;BME280;68408;53.952;27.612;2023-07-29T08:40:10;1003.1;;;23.1;51.5
53699;BME280;68408;53.952;27.612;2023-07-29T08:45:50;1003.1;;;22.6;52.4
53699;BME280;68408;53.952;27.612;2023-07-29T08:50:14;1003.2;;;22.8;52.2
53699;BME280;68408;53.952;27.612;2023-07-29T08:55:14;1003.2;;;23.1;50.7
53699;BME280;68408;53.952;27.612;2023-07-29T09:00:34;1003.2;;;23.4;50.6
53699;BME280;68408;53.952;27.612;2023-07-29T09:05:40;1003.3;;;23.5;50.2
53699;BME280;68408;53.952;27.612;2023-07-29T09:10:50;1003.3;;;23.5;50.2
53699;BME280;68408;53.952;27.612;2023-07-29T09:15:17;1003.3;;;23.6;49.7
53699;BME280;68408;53.952;27.612;2023-07-29T09:20:10;1003.4;;;23.7;49.2
53699;BME280;68408;53.952;27.612;2023-07-29T09:25:10;1003.4;;;24;48.6
53699;BME280;68408;53.952;27.612;2023-07-29T09:30:50;1003.4;;;24.3;47.7
53699;BME280;68408;53.952;27.612;2023-07-29T09:35:38;1003.4;;;24.4;47.2
53699;BME280;68408;53.952;27.612;2023-07-29T09:40:39;1003.3;;;24.7;46.9
53699;BME280;68408;53.952;27.612;2023-07-29T09:45:51;1003.4;;;24.8;45.9
53699;BME280;68408;53.952;27.612;2023-07-29T09:50:30;1003.4;;;24.5;45.9
53699;BME280;68408;53.952;27.612;2023-07-29T09:55:11;1003.5;;;24.4;45.6
53699;BME280;68408;53.952;27.612;2023-07-29T10:00:26;1003.5;;;24.2;46.3
53699;BME280;68408;53.952;27.612;2023-07-29T10:05:50;1003.6;;;24.1;46.6
53699;BME280;68408;53.952;27.612;2023-07-29T10:10:50;1003.7;;;24;46.2
53699;BME280;68408;53.952;27.612;2023-07-29T10:15:40;1003.7;;;23.9;45.9
53699;BME280;68408;53.952;27.612;2023-07-29T10:20:46;1003.7;;;23.5;46.6
53699;BME280;68408;53.952;27.612;2023-07-29T10:25:24;1003.7;;;23;47.7
53699;BME280;68408;53.952;27.612;2023-07-29T10:30:14;1003.7;;;23;48.1
53699;BME280;68408;53.952;27.612;2023-07-29T10:35:38;1003.6;;;23.5;46.8
53699;BME280;68408;53.952;27.612;2023-07-29T10:40:51;1003.6;;;24.1;45.3
53699;BME280;68408;53.952;27.612;2023-07-29T10:45:37;1003.7;;;24.6;43.6
53699;BME280;68408;53.952;27.612;2023-07-29T10:50:24;1003.7;;;24.5;42.8
53699;BME280;68408;53.952;27.612;2023-07-29T10:55:50;1003.8;;;24.3;43.1
53699;BME280;68408;53.952;27.612;2023-07-29T11:00:10;1003.7;;;24.4;43.2
53699;BME280;68408;53.952;27.612;2023-07-29T11:05:16;1003.7;;;25;42.5
53699;BME280;68408;53.952;27.612;2023-07-29T11:10:11;1003.7;;;25.3;41.5
53699;BME280;68408;53.952;27.612;2023-07-29T11:15:34;1003.8;;;25.3;41.6
53699;BME280;68408;53.952;27.612;2023-07-29T11:20:25;1003.9;;;25;41.6
53699;BME280;68408;53.952;27.612;2023-07-29T11:25:38;1003.9;;;24.5;41.8
53699;BME280;68408;53.952;27.612;2023-07-29T11:30:38;1004;;;24.1;42.5
53699;BME280;68408;53.952;27.612;2023-07-29T11:35:11;1004.1;;;23.9;43
53699;BME280;68408;53.952;27.612;2023-07-29T11:40:13;1004.1;;;23.7;43.4
53699;BME280;68408;53.952;27.612;2023-07-29T11:45:10;1004.1;;;23.7;43.8
53699;BME280;68408;53.952;27.612;2023-07-29T11:50:22;1004.1;;;24;43.6
53699;BME280;68408;53.952;27.612;2023-07-29T11:55:50;1004.2;;;24.2;43
53699;BME280;68408;53.952;27.612;2023-07-29T12:00:50;1004.2;;;24.3;42.7
53699;BME280;68408;53.952;27.612;2023-07-29T12:05:10;1004.2;;;24.4;41.8
53699;BME280;68408;53.952;27.612;2023-07-29T12:10:10;1004.2;;;24.7;41.3
53699;BME280;68408;53.952;27.612;2023-07-29T12:15:34;1004.3;;;24.6;41.5
53699;BME280;68408;53.952;27.612;2023-07-29T12:20:10;1004.3;;;24.3;41.9
53699;BME280;68408;53.952;27.612;2023-07-29T12:25:20;1004.3;;;24.3;42.1
53699;BME280;68408;53.952;27.612;2023-07-29T12:30:41;1004.3;;;24.7;41.9
53699;BME280;68408;53.952;27.612;2023-07-29T12:35:50;1004.3;;;24.8;41.7
53699;BME280;68408;53.952;27.612;2023-07-29T12:40:25;1004.3;;;24.9;41.4
53699;BME280;68408;53.952;27.612;2023-07-29T12:45:10;1004.4;;;25.1;40.9
53699;BME280;68408;53.952;27.612;2023-07-29T12:50:50;1004.3;;;25.4;40.1
53699;BME280;68408;53.952;27.612;2023-07-29T12:55:10;1004.4;;;25.5;39.6
53699;BME280;68408;53.952;27.612;2023-07-29T13:00:24;1004.3;;;25.5;39.6
53699;BME280;68408;53.952;27.612;2023-07-29T13:05:34;1004.3;;;25.4;39.7
53699;BME280;68408;53.952;27.612;2023-07-29T13:10:40;1004.3;;;25.5;39.3
53699;BME280;68408;53.952;27.612;2023-07-29T13:15:14;1004.3;;;25.6;39.2
53699;BME280;68408;53.952;27.612;2023-07-29T13:20:10;1004.3;;;25.7;39.2
53699;BME280;68408;53.952;27.612;2023-07-29T13:25:48;1004.3;;;25.9;38.9
53699;BME280;68408;53.952;27.612;2023-07-29T13:30:30;1004.3;;;25.8;39
53699;BME280;68408;53.952;27.612;2023-07-29T13:35:20;1004.4;;;25.6;38.8
53699;BME280;68408;53.952;27.612;2023-07-29T13:40:28;1004.4;;;25.6;38.9
53699;BME280;68408;53.952;27.612;2023-07-29T13:45:40;1004.4;;;25.9;38.4
53699;BME280;68408;53.952;27.612;2023-07-29T13:50:10;1004.4;;;26.2;37.2
53699;BME280;68408;53.952;27.612;2023-07-29T13:55:14;1004.4;;;26.2;35.9
53699;BME280;68408;53.952;27.612;2023-07-29T14:00:38;1004.4;;;26.3;36.3
53699;BME280;68408;53.952;27.612;2023-07-29T14:05:20;1004.4;;;26.6;36.4
53699;BME280;68408;53.952;27.612;2023-07-29T14:10:49;1004.4;;;26.5;35.5
53699;BME280;68408;53.952;27.612;2023-07-29T14:15:28;1004.4;;;26.3;36.2
53699;BME280;68408;53.952;27.612;2023-07-29T14:20:10;1004.5;;;26.1;36.5
53699;BME280;68408;53.952;27.612;2023-07-29T14:25:10;1004.4;;;25.9;36.6
53699;BME280;68408;53.952;27.612;2023-07-29T14:30:50;1004.4;;;25.9;37
53699;BME280;68408;53.952;27.612;2023-07-29T14:35:50;1004.3;;;25.8;36.8
53699;BME280;68408;53.952;27.612;2023-07-29T14:40:50;1004.4;;;25.5;37.5
53699;BME280;68408;53.952;27.612;2023-07-29T14:45:50;1004.3;;;25.3;38.1
53699;BME280;68408;53.952;27.612;2023-07-29T14:50:30;1004.4;;;25;38.6
53699;BME280;68408;53.952;27.612;2023-07-29T14:55:10;1004.3;;;24.9;38.5
53699;BME280;68408;53.952;27.612;2023-07-29T15:00:30;1004.3;;;25;37.6
53699;BME280;68408;53.952;27.612;2023-07-29T15:05:48;1004.4;;;24.6;38.2
53699;BME280;68408;53.952;27.612;2023-07-29T15:10:32;1004.4;;;24.5;38.9
53699;BME280;68408;53.952;27.612;2023-07-29T15:15:10;1004.4;;;24.5;39
53699;BME280;68408;53.952;27.612;2023-07-29T15:20:48;1004.4;;;24.6;39
53699;BME280;68408;53.952;27.612;2023-07-29T15:25:22;1004.4;;;24.8;38.5
53699;BME280;68408;53.952;27.612;2023-07-29T15:30:32;1004.4;;;25;37.3
53699;BME280;68408;53.952;27.612;2023-07-29T15:35:21;1004.4;;;25.1;36.3
53699;BME280;68408;53.952;27.612;2023-07-29T15:40:32;1004.4;;;25.2;35.6
53699;BME280;68408;53.952;27.612;2023-07-29T15:45:20;1004.4;;;25.5;34.9
53699;BME280;68408;53.952;27.612;2023-07-29T15:50:36;1004.4;;;25.6;35.2
53699;BME280;68408;53.952;27.612;2023-07-29T15:55:49;1004.4;;;25.8;34.7
53699;BME280;68408;53.952;27.612;2023-07-29T16:00:12;1004.4;;;25.8;35.5
53699;BME280;68408;53.952;27.612;2023-07-29T16:05:10;1004.4;;;25.9;35.6
53699;BME280;68408;53.952;27.612;2023-07-29T16:10:10;1004.4;;;25.9;35.6
53699;BME280;68408;53.952;27.612;2023-07-29T16:15:24;1004.4;;;25.9;35.6
53699;BME280;68408;53.952;27.612;2023-07-29T16:20:32;1004.4;;;26;35.8
53699;BME280;68408;53.952;27.612;2023-07-29T16:25:48;1004.5;;;26.1;35.9
53699;BME280;68408;53.952;27.612;2023-07-29T16:30:24;1004.5;;;26.2;35.5
53699;BME280;68408;53.952;27.612;2023-07-29T16:35:14;1004.5;;;26.1;35.7
53699;BME280;68408;53.952;27.612;2023-07-29T16:40:32;1004.6;;;26;35.6
53699;BME280;68408;53.952;27.612;2023-07-29T16:45:38;1004.6;;;26;35.8
53699;BME280;68408;53.952;27.612;2023-07-29T16:50:10;1004.6;;;25.8;35.7
53699;BME280;68408;53.952;27.612;2023-07-29T16:55:41;1004.7;;;25.5;36.3
53699;BME280;68408;53.952;27.612;2023-07-29T17:00:50;1004.8;;;25.1;36.8
53699;BME280;68408;53.952;27.612;2023-07-29T17:05:16;1004.8;;;24.8;37.6
53699;BME280;68408;53.952;27.612;2023-07-29T17:10:14;1004.8;;;24.6;38.2
53699;BME280;68408;53.952;27.612;2023-07-29T17:15:50;1004.8;;;24.4;38.3
53699;BME280;68408;53.952;27.612;2023-07-29T17:20:18;1004.8;;;24.3;38.6
53699;BME280;68408;53.952;27.612;2023-07-29T17:25:24;1004.8;;;24.2;38.9
53699;BME280;68408;53.952;27.612;2023-07-29T17:30:28;1004.8;;;24.1;39.4
53699;BME280;68408;53.952;27.612;2023-07-29T17:35:41;1004.9;;;24;39.8
53699;BME280;68408;53.952;27.612;2023-07-29T17:40:16;1004.9;;;24;40
53699;BME280;68408;53.952;27.612;2023-07-29T17:45:14;1004.9;;;24.1;39.9
53699;BME280;68408;53.952;27.612;2023-07-29T17:50:48;1005;;;24.1;40.2
53699;BME280;68408;53.952;27.612;2023-07-29T17:55:40;1005;;;23.9;40.6
53699;BME280;68408;53.952;27.612;2023-07-29T18:00:10;1005.1;;;23.7;41.1
53699;BME280;68408;53.952;27.612;2023-07-29T18:05:10;1005.1;;;23.4;41.7
53699;BME280;68408;53.952;27.612;2023-07-29T18:10:38;1005.2;;;23.2;42.1
53699;BME280;68408;53.952;27.612;2023-07-29T18:15:14;1005.2;;;22.9;42.6
53699;BME280;68408;53.952;27.612;2023-07-29T18:20:50;1005.2;;;22.8;43.3
53699;BME280;68408;53.952;27.612;2023-07-29T18:25:38;1005.3;;;22.6;43.8
53699;BME280;68408;53.952;27.612;2023-07-29T18:30:41;1005.3;;;22.4;44.3
53699;BME280;68408;53.952;27.612;2023-07-29T18:35:50;1005.4;;;22.2;44.6
53699;BME280;68408;53.952;27.612;2023-07-29T18:40:38;1005.3;;;22.1;45.1
53699;BME280;68408;53.952;27.612;2023-07-29T18:45:10;1005.3;;;21.9;45.4
53699;BME280;68408;53.952;27.612;2023-07-29T18:50:10;1005.3;;;21.7;46
53699;BME280;68408;53.952;27.612;2023-07-29T18:55:50;1005.4;;;21.6;46.3
53699;BME280;68408;53.952;27.612;2023-07-29T19:00:50;1005.4;;;21.5;46.5
53699;BME280;68408;53.952;27.612;2023-07-29T19:05:54;1005.4;;;21.4;46.7
53699;BME280;68408;53.952;27.612;2023-07-29T19:10:50;1005.4;;;21.3;46.9
53699;BME280;68408;53.952;27.612;2023-07-29T19:15:36;1005.4;;;21.2;47.3
53699;BME280;68408;53.952;27.612;2023-07-29T19:20:10;1005.4;;;21.1;47.6
53699;BME280;68408;53.952;27.612;2023-07-29T19:25:36;1005.4;;;21;48
53699;BME280;68408;53.952;27.612;2023-07-29T19:30:51;1005.5;;;20.8;48.3
53699;BME280;68408;53.952;27.612;2023-07-29T19:35:34;1005.5;;;20.8;48.6
53699;BME280;68408;53.952;27.612;2023-07-29T19:40:24;1005.5;;;20.7;48.8
53699;BME280;68408;53.952;27.612;2023-07-29T19:45:50;1005.5;;;20.6;49
53699;BME280;68408;53.952;27.612;2023-07-29T19:50:10;1005.6;;;20.6;49.1
53699;BME280;68408;53.952;27.612;2023-07-29T19:55:10;1005.6;;;20.5;49.4
53699;BME280;68408;53.952;27.612;2023-07-29T20:00:22;1005.6;;;20.4;49.6
53699;BME280;68408;53.952;27.612;2023-07-29T20:05:52;1005.7;;;20.3;49.6
53699;BME280;68408;53.952;27.612;2023-07-29T20:10:24;1005.7;;;20.3;49.7
53699;BME280;68408;53.952;27.612;2023-07-29T20:15:12;1005.7;;;20.3;49.9
53699;BME280;68408;53.952;27.612;2023-07-29T20:20:28;1005.7;;;20.2;50
53699;BME280;68408;53.952;27.612;2023-07-29T20:25:14;1005.7;;;20.1;50.3
53699;BME280;68408;53.952;27.612;2023-07-29T20:30:14;1005.7;;;20.1;50.6
53699;BME280;68408;53.952;27.612;2023-07-29T20:35:10;1005.8;;;19.9;51.5
53699;BME280;68408;53.952;27.612;2023-07-29T20:40:26;1005.8;;;19.9;51.8
53699;BME280;68408;53.952;27.612;2023-07-29T20:45:28;1005.8;;;19.8;52.5
53699;BME280;68408;53.952;27.612;2023-07-29T20:50:52;1005.7;;;19.6;53.4
53699;BME280;68408;53.952;27.612;2023-07-29T20:55:28;1005.8;;;19.5;53.9
53699;BME280;68408;53.952;27.612;2023-07-29T21:00:24;1005.8;;;19.3;54.7
53699;BME280;68408;53.952;27.612;2023-07-29T21:05:36;1005.8;;;19.2;54.7
53699;BME280;68408;53.952;27.612;2023-07-29T21:10:52;1005.8;;;19.2;55.2
53699;BME280;68408;53.952;27.612;2023-07-29T21:15:10;1005.8;;;19.1;55.9
53699;BME280;68408;53.952;27.612;2023-07-29T21:20:42;1005.8;;;19;56.8
53699;BME280;68408;53.952;27.612;2023-07-29T21:25:38;1005.8;;;18.9;57.4
53699;BME280;68408;53.952;27.612;2023-07-29T21:30:22;1005.9;;;18.8;57.8
53699;BME280;68408;53.952;27.612;2023-07-29T21:35:14;1005.9;;;18.7;58.1
53699;BME280;68408;53.952;27.612;2023-07-29T21:40:38;1005.8;;;18.6;58.7
53699;BME280;68408;53.952;27.612;2023-07-29T21:45:18;1005.8;;;18.6;58.6
53699;BME280;68408;53.952;27.612;2023-07-29T21:50:24;1005.8;;;18.5;59.2
53699;BME280;68408;53.952;27.612;2023-07-29T21:55:28;1005.9;;;18.4;60
53699;BME280;68408;53.952;27.612;2023-07-29T22:00:42;1005.8;;;18.3;60.7
53699;BME280;68408;53.952;27.612;2023-07-29T22:05:10;1005.8;;;18.1;61
53699;BME280;68408;53.952;27.612;2023-07-29T22:10:22;1005.8;;;18.1;61.2
53699;BME280;68408;53.952;27.612;2023-07-29T22:15:38;1005.8;;;18;61.6
53699;BME280;68408;53.952;27.612;2023-07-29T22:20:51;1005.9;;;18;61.9
53699;BME280;68408;53.952;27.612;2023-07-29T22:25:54;1005.9;;;17.9;62.1
53699;BME280;68408;53.952;27.612;2023-07-29T22:30:10;1005.9;;;17.8;62.4
53699;BME280;68408;53.952;27.612;2023-07-29T22:35:24;1005.9;;;17.8;62.8
53699;BME280;68408;53.952;27.612;2023-07-29T22:40:22;1006;;;17.7;63
53699;BME280;68408;53.952;27.612;2023-07-29T22:45:52;1006.1;;;17.7;63.4
53699;BME280;68408;53.952;27.612;2023-07-29T22:50:24;1006.1;;;17.6;63.3
53699;BME280;68408;53.952;27.612;2023-07-29T22:55:41;1006.1;;;17.6;63.6
53699;BME280;68408;53.952;27.612;2023-07-29T23:00:42;1006;;;17.5;64
53699;BME280;68408;53.952;27.612;2023-07-29T23:05:52;1006;;;17.5;63.9
53699;BME280;68408;53.952;27.612;2023-07-29T23:10:14;1006.1;;;17.4;64.3
53699;BME280;68408;53.952;27.612;2023-07-29T23:15:22;1006;;;17.3;65
53699;BME280;68408;53.952;27.612;2023-07-29T23:20:52;1006;;;17.2;65
53699;BME280;68408;53.952;27.612;2023-07-29T23:25:52;1006;;;17.1;65.2
53699;BME280;68408;53.952;27.612;2023-07-29T23:30:54;1006;;;17.1;65.2
53699;BME280;68408;53.952;27.612;2023-07-29T23:35:50;1006;;;17.1;65.3
53699;BME280;68408;53.952;27.612;2023-07-29T23:40:20;1006;;;17;65.7
53699;BME280;68408;53.952;27.612;2023-07-29T23:45:36;1006;;;17;65.6
53699;BME280;68408;53.952;27.612;2023-07-29T23:50:38;1006;;;17;66
53699;BME280;68408;53.952;27.612;2023-07-29T23:55:52;1006.1;;;16.9;66.2
